createdAt,value
2023-05-16T03:25:09.145Z,99664.81
2023-05-16T03:28:13.348Z,99664.84
2023-05-16T03:56:15.081Z,99669.13
2023-05-16T04:10:40.032Z,99687.28
2023-05-16T04:41:37.376Z,99706.88
2023-05-16T04:44:40.056Z,99708.56
2023-05-16T04:47:42.947Z,99704.16
2023-05-16T04:50:49.489Z,99695.88
2023-05-16T04:53:54.278Z,99705.94
2023-05-16T05:16:38.728Z,99764.94
2023-05-16T05:31:17.962Z,99788.81
2023-05-16T05:34:21.139Z,99794.09
2023-05-16T05:37:23.696Z,99794.09
2023-05-16T05:40:26.376Z,99803.09
2023-05-16T05:43:29.234Z,99813.34
2023-05-16T05:46:34.599Z,99830.41
2023-05-16T05:49:37.118Z,99834.16
2023-05-16T05:52:39.848Z,99858.25
2023-05-16T05:55:42.670Z,99871.50
2023-05-16T05:58:45.913Z,99889.03
2023-05-16T06:01:52.798Z,99914.44
2023-05-16T06:11:29.800Z,99938.91
2023-05-16T06:21:35.436Z,99965.50
2023-05-16T06:24:40.923Z,99973.44
2023-05-16T06:27:43.770Z,99985.78
2023-05-16T06:30:47.863Z,100002.69
2023-05-16T06:33:54.956Z,100016.00
2023-05-16T06:36:59.731Z,100018.09
2023-05-16T06:40:02.296Z,100043.84
2023-05-16T06:43:04.835Z,100043.75
2023-05-16T06:46:07.397Z,100056.38
2023-05-16T06:49:09.921Z,100072.16
2023-05-16T06:52:13.786Z,100083.09
2023-05-16T06:55:16.835Z,100088.75
2023-05-16T06:58:19.440Z,100093.09
2023-05-16T07:01:22.005Z,100105.00
2023-05-16T07:04:24.555Z,100116.41
2023-05-16T07:07:28.597Z,100112.66
2023-05-16T07:10:31.199Z,100126.25
2023-05-16T07:13:35.831Z,100139.88
2023-05-16T07:16:38.913Z,100155.63
2023-05-16T07:19:41.549Z,100158.16
2023-05-16T07:22:45.478Z,100171.03
2023-05-16T07:25:48.067Z,100176.66
2023-05-16T07:28:50.782Z,100173.75
2023-05-16T07:31:53.313Z,100183.38
2023-05-16T07:34:55.826Z,100192.56
2023-05-16T07:37:59.691Z,100197.00
2023-05-16T07:41:02.469Z,100205.88
2023-05-16T07:44:05.049Z,100210.97
2023-05-16T07:47:07.702Z,100210.81
2023-05-16T07:50:11.676Z,100227.53
2023-05-16T07:53:15.519Z,100231.50
2023-05-16T07:56:18.398Z,100243.63
2023-05-16T07:59:21.097Z,100246.16
2023-05-16T08:02:24.752Z,100261.94
2023-05-16T08:05:27.578Z,100272.16
2023-05-16T08:08:31.672Z,100274.03
2023-05-16T08:11:34.260Z,100277.31
2023-05-16T08:14:37.062Z,100278.38
2023-05-16T08:17:39.939Z,100286.94
2023-05-16T08:20:42.753Z,100292.94
2023-05-16T08:23:46.677Z,100292.19
2023-05-16T08:26:49.177Z,100305.13
2023-05-16T08:29:51.672Z,100293.22
2023-05-16T08:32:54.329Z,100310.69
2023-05-16T08:35:57.012Z,100307.69
2023-05-16T08:39:00.848Z,100308.94
2023-05-16T08:42:05.248Z,100298.22
2023-05-16T08:45:09.042Z,100294.00
2023-05-16T08:48:12.506Z,100300.41
2023-05-16T08:51:18.338Z,100300.06
2023-05-16T08:54:22.762Z,100303.19
2023-05-16T08:57:25.810Z,100310.13
2023-05-16T09:00:29.024Z,100316.25
2023-05-16T09:03:31.987Z,100320.47
2023-05-16T09:06:34.563Z,100324.28
2023-05-16T09:09:38.877Z,100332.34
2023-05-16T09:12:42.382Z,100330.19
2023-05-16T09:15:45.604Z,100337.94
2023-05-16T09:18:55.514Z,100344.03
2023-05-16T09:22:00.475Z,100331.06
2023-05-16T09:25:06.969Z,100336.97
2023-05-16T09:28:12.092Z,100332.38
2023-05-16T09:31:22.550Z,100345.75
2023-05-16T09:34:25.069Z,100333.91
2023-05-16T09:37:27.563Z,100334.66
2023-05-16T09:40:31.486Z,100343.03
2023-05-16T09:43:35.627Z,100331.09
2023-05-16T09:46:39.822Z,100326.22
2023-05-16T09:49:42.424Z,100332.97
2023-05-16T09:52:45.340Z,100344.13
2023-05-16T09:55:49.201Z,100352.06
2023-05-16T09:58:53.158Z,100354.72
2023-05-16T10:01:55.904Z,100359.13
2023-05-16T10:04:58.557Z,100371.56
2023-05-16T10:08:03.804Z,100378.34
2023-05-16T10:11:07.974Z,100384.28
2023-05-16T10:14:11.765Z,100402.16
2023-05-16T10:17:17.066Z,100398.31
2023-05-16T10:20:21.463Z,100396.50
2023-05-16T10:23:27.050Z,100398.75
2023-05-16T10:26:31.713Z,100396.66
2023-05-16T10:29:46.477Z,100396.22
2023-05-16T10:32:57.580Z,100403.03
2023-05-16T10:36:00.363Z,100406.56
2023-05-16T10:39:04.221Z,100415.53
2023-05-16T10:42:09.025Z,100419.59
2023-05-16T10:45:18.343Z,100420.47
2023-05-16T10:48:30.390Z,100419.28
2023-05-16T10:51:37.656Z,100416.63
2023-05-16T10:54:42.189Z,100422.56
2023-05-16T10:57:46.158Z,100419.03
2023-05-16T11:00:49.960Z,100430.69
2023-05-16T11:04:10.065Z,100419.69
2023-05-16T11:07:13.046Z,100419.19
2023-05-16T11:10:17.425Z,100420.47
2023-05-16T11:13:25.653Z,100423.66
2023-05-16T11:16:29.323Z,100425.00
2023-05-16T11:19:35.072Z,100419.81
2023-05-16T11:22:41.389Z,100426.97
2023-05-16T11:25:45.818Z,100430.00
2023-05-16T11:28:51.852Z,100419.97
2023-05-16T11:31:54.463Z,100408.34
2023-05-16T11:34:57.402Z,100415.41
2023-05-16T11:38:00.192Z,100425.72
2023-05-16T11:41:06.803Z,100434.06
2023-05-16T11:44:12.589Z,100431.72
2023-05-16T11:47:15.643Z,100432.84
2023-05-16T11:50:19.692Z,100432.00
2023-05-16T11:53:23.386Z,100429.22
2023-05-16T11:56:26.346Z,100436.53
2023-05-16T11:59:31.146Z,100442.28
2023-05-16T12:02:34.318Z,100440.16
2023-05-16T12:05:37.117Z,100443.31
2023-05-16T12:08:39.781Z,100439.75
2023-05-16T12:11:44.017Z,100444.97
2023-05-16T12:14:48.191Z,100446.84
2023-05-16T12:17:52.128Z,100459.84
2023-05-16T12:20:54.749Z,100454.41
2023-05-16T12:23:58.518Z,100461.63
2023-05-16T12:27:01.032Z,100464.00
2023-05-16T12:30:05.368Z,100452.88
2023-05-16T12:33:10.503Z,100462.31
2023-05-16T12:36:15.495Z,100455.47
2023-05-16T12:39:18.238Z,100457.56
2023-05-16T12:42:20.957Z,100456.00
2023-05-16T12:45:25.328Z,100465.34
2023-05-16T12:48:34.076Z,100464.06
2023-05-16T12:51:36.684Z,100460.88
2023-05-16T12:54:39.517Z,100461.28
2023-05-16T12:57:43.372Z,100473.09
2023-05-16T13:00:47.208Z,100478.97
2023-05-16T13:03:49.811Z,100480.88
2023-05-16T13:09:58.588Z,100497.88
2023-05-16T13:13:01.130Z,100491.09
2023-05-16T13:16:05.280Z,100490.78
2023-05-16T13:19:07.987Z,100491.19
2023-05-16T13:22:10.728Z,100489.22
2023-05-16T13:25:13.379Z,100485.59
2023-05-16T13:28:15.894Z,100483.63
2023-05-16T13:31:19.871Z,100472.44
2023-05-16T13:34:22.414Z,100479.03
2023-05-16T13:37:25.775Z,100478.69
2023-05-16T13:40:29.394Z,100470.69
2023-05-16T13:43:31.974Z,100473.78
2023-05-16T13:46:36.047Z,100478.41
2023-05-16T13:49:38.994Z,100468.63
2023-05-16T13:52:41.582Z,100467.41
2023-05-16T13:55:45.043Z,100462.16
2023-05-16T13:59:00.719Z,100456.38
2023-05-16T14:02:07.924Z,100463.16
2023-05-16T14:05:10.916Z,100460.22
2023-05-16T14:08:14.383Z,100468.78
2023-05-16T14:11:19.580Z,100465.41
2023-05-16T14:14:22.111Z,100474.56
2023-05-16T14:17:26.853Z,100469.31
2023-05-16T14:20:29.378Z,100465.28
2023-05-16T14:23:31.936Z,100468.41
2023-05-16T14:26:34.507Z,100467.28
2023-05-16T14:29:37.097Z,100467.78
2023-05-16T14:32:40.991Z,100468.53
2023-05-16T14:35:43.534Z,100468.28
2023-05-16T14:38:46.066Z,100469.94
2023-05-16T14:41:48.570Z,100476.63
2023-05-16T14:44:51.290Z,100473.34
2023-05-16T14:47:55.187Z,100484.19
2023-05-16T14:51:00.889Z,100480.94
2023-05-16T14:54:03.436Z,100488.31
2023-05-16T14:57:07.350Z,100490.50
2023-05-16T15:00:11.707Z,100488.06
2023-05-16T15:03:17.747Z,100481.19
2023-05-16T15:06:20.325Z,100477.69
2023-05-16T15:09:22.847Z,100474.38
2023-05-16T15:12:25.362Z,100477.09
2023-05-16T15:15:28.545Z,100472.69
2023-05-16T15:18:32.436Z,100466.59
2023-05-16T15:21:35.118Z,100475.38
2023-05-16T15:24:37.784Z,100474.59
2023-05-16T15:27:40.551Z,100474.94
2023-05-16T15:30:43.140Z,100486.59
2023-05-16T15:33:48.572Z,100497.63
2023-05-16T15:36:51.813Z,100490.38
2023-05-16T15:39:54.317Z,100488.56
2023-05-16T15:42:56.861Z,100491.00
2023-05-16T15:45:59.450Z,100491.91
2023-05-16T15:49:03.390Z,100480.38
2023-05-16T15:52:06.501Z,100480.03
2023-05-16T15:55:11.892Z,100488.34
2023-05-16T15:58:14.439Z,100481.50
2023-05-16T16:01:17.706Z,100490.56
2023-05-16T16:04:23.380Z,100489.00
2023-05-16T16:07:26.381Z,100484.53
2023-05-16T16:10:28.901Z,100481.75
2023-05-16T16:13:31.920Z,100490.69
2023-05-16T16:16:34.628Z,100487.19
2023-05-16T16:19:38.524Z,100489.69
2023-05-16T16:22:41.003Z,100492.00
2023-05-16T16:25:43.539Z,100486.75
2023-05-16T16:28:46.033Z,100497.09
2023-05-16T16:31:48.822Z,100507.50
2023-05-16T16:34:52.788Z,100501.66
2023-05-16T16:41:04.990Z,100499.19
2023-05-16T16:44:07.520Z,100504.31
2023-05-16T16:47:10.423Z,100502.09
2023-05-16T16:50:14.312Z,100507.44
2023-05-16T16:53:16.896Z,100518.56
2023-05-16T16:56:19.676Z,100504.59
2023-05-16T16:59:22.238Z,100513.91
2023-05-16T17:02:24.928Z,100511.91
2023-05-16T17:05:28.968Z,100496.38
2023-05-16T17:08:31.774Z,100493.88
2023-05-16T17:11:36.349Z,100486.59
2023-05-16T17:14:38.884Z,100496.50
2023-05-16T17:17:41.510Z,100494.22
2023-05-16T17:20:45.399Z,100492.25
2023-05-16T17:23:50.368Z,100497.50
2023-05-16T17:26:55.810Z,100494.44
2023-05-16T17:29:58.662Z,100481.78
2023-05-16T17:33:01.251Z,100491.13
2023-05-16T17:36:06.063Z,100496.97
2023-05-16T17:39:10.492Z,100501.13
2023-05-16T17:42:13.006Z,100507.66
2023-05-16T17:45:16.398Z,100517.13
2023-05-16T17:48:19.146Z,100521.00
2023-05-16T17:51:23.075Z,100526.38
2023-05-16T17:54:27.204Z,100537.44
2023-05-16T17:57:29.704Z,100532.09
2023-05-16T18:00:32.711Z,100530.28
2023-05-16T18:03:35.283Z,100542.28
2023-05-16T18:06:39.631Z,100557.19
2023-05-16T18:09:42.133Z,100550.81
2023-05-16T18:12:44.861Z,100559.19
2023-05-16T18:15:47.744Z,100549.88
2023-05-16T18:18:53.363Z,100566.56
2023-05-16T18:21:58.475Z,100560.88
2023-05-16T18:25:01.243Z,100570.06
2023-05-16T18:28:04.644Z,100571.44
2023-05-16T18:31:07.663Z,100574.75
2023-05-16T18:34:10.645Z,100580.31
2023-05-16T18:37:14.570Z,100591.16
2023-05-16T18:40:17.977Z,100594.78
2023-05-16T18:43:20.605Z,100597.34
2023-05-16T18:46:23.208Z,100607.75
2023-05-16T18:49:26.008Z,100605.09
2023-05-16T18:52:29.863Z,100615.06
2023-05-16T18:55:32.667Z,100607.34
2023-05-16T18:58:35.157Z,100617.78
2023-05-16T19:01:37.841Z,100612.31
2023-05-16T19:04:40.560Z,100622.34
2023-05-16T19:07:44.522Z,100616.28
2023-05-16T19:10:47.133Z,100620.56
2023-05-16T19:13:49.786Z,100630.88
2023-05-16T19:16:52.439Z,100630.72
2023-05-16T19:19:55.008Z,100633.44
2023-05-16T19:22:58.885Z,100639.22
2023-05-16T19:26:01.426Z,100645.41
2023-05-16T19:29:03.967Z,100641.06
2023-05-16T19:32:07.616Z,100644.72
2023-05-16T19:35:10.871Z,100656.81
2023-05-16T19:38:14.739Z,100663.28
2023-05-16T19:41:17.970Z,100667.16
2023-05-16T19:44:20.478Z,100672.72
2023-05-16T19:47:23.007Z,100673.63
2023-05-16T19:50:25.599Z,100675.59
2023-05-16T19:53:29.582Z,100686.16
2023-05-16T19:56:32.108Z,100692.81
2023-05-16T19:59:34.723Z,100692.50
2023-05-16T20:02:37.255Z,100689.31
2023-05-16T20:05:39.798Z,100692.03
2023-05-16T20:08:43.709Z,100702.09
2023-05-16T20:11:46.309Z,100691.69
2023-05-16T20:14:48.927Z,100692.50
2023-05-16T20:17:51.477Z,100683.63
2023-05-16T20:20:54.066Z,100689.38
2023-05-16T20:23:57.916Z,100684.22
2023-05-16T20:27:01.398Z,100692.25
2023-05-16T20:30:06.442Z,100689.81
2023-05-16T20:33:08.977Z,100696.66
2023-05-16T20:36:11.533Z,100699.81
2023-05-16T20:39:15.615Z,100702.91
2023-05-16T20:42:18.111Z,100709.59
2023-05-16T20:45:20.815Z,100706.88
2023-05-16T20:48:23.389Z,100703.47
2023-05-16T20:51:25.986Z,100707.97
2023-05-16T20:54:29.857Z,100713.53
2023-05-16T20:57:32.415Z,100705.25
2023-05-16T21:00:35.119Z,100703.81
2023-05-16T21:03:37.710Z,100710.28
2023-05-16T21:18:48.621Z,100708.41
2023-05-16T21:21:51.349Z,100710.03
2023-05-16T21:24:53.930Z,100715.72
2023-05-16T21:27:56.450Z,100716.63
2023-05-16T21:30:58.968Z,100717.94
2023-05-16T22:00:41.570Z,100717.41
2023-05-16T22:03:44.364Z,100719.13
2023-05-16T22:06:46.902Z,100713.09
